Time;durP1;ratioP1;P1;durP2;ratioP2;P2;SDS_P1;SDS_P2;PMS_P1;PMS_P2;Temp;Humidity;BMP_temperature;BMP_pressure;BME280_temperature;BME280_humidity;BME280_pressure;Samples;Min_cycle;Max_cycle;Signal;HPM_P1;HPM_P2
2023/09/09 00:01:25;;;;;;;;;22.33;18.00;;;;;28.48;42.61;100947.16;5077509;28;45422;-71
2023/09/09 00:03:51;;;;;;;;;18.67;17.00;;;;;28.74;42.29;101000.22;5077527;28;45405;-70
2023/09/09 00:06:16;;;;;;;;;23.00;19.67;;;;;28.48;43.34;100969.03;5076932;28;45586;-74
2023/09/09 00:08:42;;;;;;;;;19.33;19.33;;;;;28.82;42.83;101023.53;5076568;28;62177;-72
2023/09/09 00:11:09;;;;;;;;;17.67;17.00;;;;;28.82;42.77;101012.59;5077584;28;45306;-70
2023/09/09 00:13:35;;;;;;;;;17.00;17.00;;;;;28.74;42.99;101012.00;5077594;28;45270;-72
2023/09/09 00:16:00;;;;;;;;;16.00;15.33;;;;;28.77;42.74;101022.41;5059050;28;47484;-72
2023/09/09 00:18:26;;;;;;;;;16.67;16.67;;;;;28.73;42.21;101018.53;5077333;28;45181;-75
2023/09/09 00:20:52;;;;;;;;;20.00;17.00;;;;;28.72;42.77;101013.34;5077172;28;45232;-71
2023/09/09 00:23:17;;;;;;;;;15.00;15.00;;;;;28.66;42.38;101008.91;5077405;27;45506;-72
2023/09/09 00:25:43;;;;;;;;;13.00;13.00;;;;;28.64;42.96;101006.44;5077055;28;46481;-72
2023/09/09 00:28:10;;;;;;;;;16.67;16.67;;;;;28.65;42.44;101019.03;5077209;28;45500;-71
2023/09/09 00:30:36;;;;;;;;;14.00;13.00;;;;;28.53;42.98;100993.72;5077100;28;45384;-73
2023/09/09 00:33:02;;;;;;;;;13.33;11.67;;;;;28.29;42.70;100954.06;5059375;28;45316;-71
2023/09/09 00:35:28;;;;;;;;;14.67;13.00;;;;;28.57;42.47;101011.25;5058684;28;45711;-71
2023/09/09 00:37:54;;;;;;;;;15.00;13.67;;;;;28.57;42.83;101014.00;5076853;28;45535;-72
2023/09/09 00:40:19;;;;;;;;;13.33;13.33;;;;;28.55;42.64;101013.41;5079159;28;45155;-71
2023/09/09 00:42:45;;;;;;;;;14.67;13.00;;;;;28.55;43.48;101001.66;5081042;28;45229;-72
2023/09/09 00:45:10;;;;;;;;;15.00;14.67;;;;;28.45;43.06;100986.81;5080313;28;45319;-71
2023/09/09 00:47:37;;;;;;;;;14.00;12.00;;;;;28.50;42.60;101001.59;5080597;28;45387;-71
2023/09/09 00:50:09;;;;;;;;;18.00;15.00;;;;;28.51;42.40;101001.34;5080491;28;45355;-72
2023/09/09 00:52:37;;;;;;;;;14.67;10.33;;;;;28.52;42.78;100999.44;5080752;28;45504;-72
2023/09/09 00:55:03;;;;;;;;;18.00;16.00;;;;;28.43;42.77;100988.97;5079993;28;47494;-72
2023/09/09 00:57:29;;;;;;;;;16.33;12.67;;;;;28.50;42.83;100999.69;5080297;28;45476;-72
2023/09/09 00:59:54;;;;;;;;;15.33;14.00;;;;;28.45;42.70;101010.59;5080527;28;45337;-72
2023/09/09 01:02:19;;;;;;;;;12.33;11.00;;;;;28.46;42.52;101010.34;5080518;28;45608;-73
2023/09/09 01:04:45;;;;;;;;;13.00;12.00;;;;;28.45;42.98;101010.59;5079793;28;45554;-71
2023/09/09 01:07:11;;;;;;;;;14.67;14.67;;;;;28.40;42.62;101011.34;5080414;28;45287;-73
2023/09/09 01:09:36;;;;;;;;;16.00;14.33;;;;;28.32;43.00;101000.03;5080293;28;45375;-71
2023/09/09 01:12:03;;;;;;;;;18.33;15.67;;;;;28.32;43.22;101000.03;5080320;28;45302;-71
2023/09/09 01:14:29;;;;;;;;;14.00;13.00;;;;;28.13;43.30;100970.25;5080159;28;47572;-73
2023/09/09 01:16:56;;;;;;;;;16.33;14.00;;;;;28.34;43.21;101008.81;5080209;28;45470;-72
2023/09/09 01:19:25;;;;;;;;;16.00;13.33;;;;;28.34;43.25;101012.38;5079537;28;45247;-72
2023/09/09 01:21:53;;;;;;;;;13.00;11.67;;;;;28.23;42.95;101001.50;5080318;28;45307;-72
2023/09/09 01:24:19;;;;;;;;;12.33;10.00;;;;;28.28;42.93;101020.78;5079824;27;46640;-71
2023/09/09 01:26:45;;;;;;;;;15.33;15.00;;;;;28.23;43.31;101010.53;5079835;28;45350;-72
2023/09/09 01:29:11;;;;;;;;;14.00;13.33;;;;;28.21;43.64;101007.25;5080033;28;45252;-71
2023/09/09 01:31:37;;;;;;;;;15.00;14.33;;;;;28.13;43.14;101004.97;5080102;28;45443;-71
2023/09/09 01:34:02;;;;;;;;;10.33;10.33;;;;;28.15;43.48;101006.34;5079487;28;46535;-71
2023/09/09 01:36:27;;;;;;;;;17.33;15.00;;;;;28.18;43.64;101008.56;5079769;28;45339;-72
2023/09/09 01:38:53;;;;;;;;;17.00;17.00;;;;;28.12;43.95;101000.56;5080236;28;45529;-71
2023/09/09 01:41:18;;;;;;;;;15.67;13.33;;;;;28.17;44.59;101012.38;5080000;28;45259;-71
2023/09/09 01:43:43;;;;;;;;;14.67;14.33;;;;;28.18;44.88;101013.22;5079412;28;49688;-71
2023/09/09 01:46:09;;;;;;;;;16.00;14.00;;;;;28.12;44.74;101006.88;5079603;28;45242;-71
2023/09/09 01:48:34;;;;;;;;;15.00;13.33;;;;;28.12;45.17;101003.31;5079772;28;45672;-71
2023/09/09 01:50:59;;;;;;;;;14.00;12.67;;;;;28.14;44.04;101009.34;5079198;28;45502;-72
2023/09/09 01:53:25;;;;;;;;;12.33;12.33;;;;;28.08;44.91;101002.16;5079325;28;46612;-72
2023/09/09 01:55:50;;;;;;;;;14.67;14.67;;;;;27.74;44.45;100946.78;5079441;28;45367;-71
2023/09/09 01:58:16;;;;;;;;;13.67;13.67;;;;;28.06;43.91;100998.88;5079552;28;45506;-70
2023/09/09 02:00:42;;;;;;;;;15.00;15.00;;;;;27.96;44.47;100983.16;5079606;28;45237;-70
2023/09/09 02:03:07;;;;;;;;;15.67;14.67;;;;;27.98;44.48;101002.84;5079087;28;46969;-72
2023/09/09 02:05:33;;;;;;;;;13.67;12.33;;;;;27.96;44.19;101005.00;5060777;28;45261;-71
2023/09/09 02:07:58;;;;;;;;;14.33;13.67;;;;;27.83;44.50;100986.22;5079324;28;45427;-73
2023/09/09 02:10:23;;;;;;;;;14.00;13.67;;;;;27.91;44.70;101004.13;5079594;28;45240;-71
2023/09/09 02:12:49;;;;;;;;;12.33;12.33;;;;;27.93;45.19;101002.78;5079091;28;45224;-72
2023/09/09 02:15:14;;;;;;;;;15.00;13.33;;;;;27.92;44.58;101003.03;5078221;28;69324;-73
2023/09/09 02:17:39;;;;;;;;;13.33;12.00;;;;;27.93;44.99;101010.97;5060874;28;45683;-70
2023/09/09 02:20:08;;;;;;;;;15.00;14.00;;;;;27.89;45.43;100998.91;5079145;28;45688;-71
2023/09/09 02:22:34;;;;;;;;;15.33;14.00;;;;;27.90;45.47;101006.03;5078966;27;46469;-70
2023/09/09 02:24:59;;;;;;;;;16.67;16.67;;;;;27.87;45.57;101001.91;5079057;28;45258;-72
2023/09/09 02:27:24;;;;;;;;;16.33;13.67;;;;;27.81;45.37;100991.97;5079122;28;45439;-71
2023/09/09 02:29:50;;;;;;;;;16.67;13.33;;;;;27.89;45.15;100993.44;5079254;28;45384;-71
2023/09/09 02:32:16;;;;;;;;;13.67;13.67;;;;;27.87;45.38;101004.63;5078856;28;46464;-71
2023/09/09 02:34:41;;;;;;;;;19.33;17.00;;;;;27.85;45.24;101003.22;5078337;28;45438;-71
2023/09/09 02:37:17;;;;;;;;;21.33;17.00;;;;;27.84;45.56;101007.03;5078781;28;45328;-71
2023/09/09 02:39:50;;;;;;;;;14.67;13.00;;;;;27.73;45.23;100988.84;5078779;28;45339;-71
2023/09/09 02:42:17;;;;;;;;;17.33;16.33;;;;;27.78;46.02;100997.94;5078553;28;46402;-70
2023/09/09 02:44:43;;;;;;;;;16.67;15.33;;;;;27.78;45.36;101000.66;5078658;28;45570;-71
2023/09/09 02:47:10;;;;;;;;;16.67;15.00;;;;;27.56;45.67;100965.09;5078565;28;45234;-70
2023/09/09 02:49:41;;;;;;;;;16.33;16.33;;;;;27.75;45.86;100997.63;5078462;28;45317;-71
2023/09/09 02:52:07;;;;;;;;;21.33;16.67;;;;;27.74;45.89;101002.25;5078224;28;46243;-71
2023/09/09 02:54:36;;;;;;;;;15.00;13.33;;;;;27.59;46.05;100983.69;5078249;28;45316;-72
2023/09/09 02:57:03;;;;;;;;;15.00;13.00;;;;;27.56;46.08;100989.66;5078346;28;45312;-71
2023/09/09 02:59:30;;;;;;;;;15.00;15.00;;;;;27.58;45.92;100992.13;5060487;28;45519;-72
2023/09/09 03:01:56;;;;;;;;;19.67;19.67;;;;;27.44;46.78;100980.75;5077467;28;45681;-72
2023/09/09 03:04:21;;;;;;;;;18.33;16.00;;;;;27.55;46.47;100998.09;5077707;28;45269;-71
2023/09/09 03:06:47;;;;;;;;;15.67;15.67;;;;;27.51;46.79;101002.41;5078381;28;45486;-72
2023/09/09 03:09:15;;;;;;;;;18.33;16.67;;;;;27.13;46.43;100943.13;5078605;28;45222;-71
2023/09/09 03:11:41;;;;;;;;;15.00;15.00;;;;;27.36;46.74;100989.34;5078183;28;45818;-71
2023/09/09 03:14:06;;;;;;;;;17.67;17.33;;;;;27.22;47.45;100983.38;5077955;28;45677;-71
2023/09/09 03:16:31;;;;;;;;;17.67;16.67;;;;;27.32;47.51;100993.66;5078267;28;45793;-71
2023/09/09 03:18:56;;;;;;;;;18.67;16.33;;;;;27.34;47.22;101002.44;5078267;28;45505;-72
2023/09/09 03:21:23;;;;;;;;;17.33;17.33;;;;;27.35;47.53;101001.34;5078039;28;46530;-71
2023/09/09 03:23:48;;;;;;;;;17.67;15.00;;;;;27.33;47.28;100989.03;5077910;27;45346;-71
2023/09/09 03:26:18;;;;;;;;;18.33;15.67;;;;;27.34;47.27;100996.13;5078025;28;45313;-71
2023/09/09 03:28:47;;;;;;;;;18.00;15.33;;;;;27.31;47.24;100992.00;5078207;28;45240;-71
2023/09/09 03:31:13;;;;;;;;;15.50;15.50;;;;;27.30;47.54;100990.34;5077841;28;45731;-71
2023/09/09 03:33:39;;;;;;;;;16.67;16.67;;;;;27.29;47.23;100988.69;5077830;28;45418;-71
2023/09/09 03:36:05;;;;;;;;;14.67;14.67;;;;;27.26;47.66;100978.28;5077749;28;45448;-71
2023/09/09 03:38:30;;;;;;;;;15.33;15.33;;;;;27.32;47.35;100990.94;5078050;28;45289;-70
2023/09/09 03:40:56;;;;;;;;;17.00;14.67;;;;;27.02;47.07;100938.56;5077670;28;45670;-72
2023/09/09 03:43:21;;;;;;;;;17.67;16.33;;;;;27.08;47.68;100952.06;5077563;28;50545;-72
2023/09/09 03:45:46;;;;;;;;;14.67;14.67;;;;;27.26;47.57;100991.94;5078016;28;45356;-70
2023/09/09 03:48:12;;;;;;;;;17.00;16.67;;;;;27.26;47.29;100986.47;5059659;28;45633;-70
2023/09/09 03:50:37;;;;;;;;;18.00;15.33;;;;;27.24;47.61;100994.91;5077184;28;46605;-71
2023/09/09 03:53:03;;;;;;;;;17.33;16.33;;;;;27.26;47.98;101000.13;5077013;28;57823;-70
2023/09/09 03:55:28;;;;;;;;;13.00;13.00;;;;;27.11;47.91;100986.22;5077416;28;45513;-71
2023/09/09 03:57:53;;;;;;;;;13.33;13.33;;;;;27.21;48.07;101002.75;5077964;28;45476;-70
2023/09/09 04:00:19;;;;;;;;;14.67;13.33;;;;;27.19;48.26;101008.47;5077494;28;47633;-71
2023/09/09 04:02:45;;;;;;;;;15.33;15.00;;;;;27.20;48.06;100998.38;5077409;28;45532;-71
2023/09/09 04:05:10;;;;;;;;;16.67;14.00;;;;;27.03;47.89;100965.63;5077095;28;45295;-71
2023/09/09 04:07:36;;;;;;;;;17.67;17.00;;;;;26.91;47.85;100960.19;5077546;28;45482;-72
2023/09/09 04:10:02;;;;;;;;;14.33;14.33;;;;;27.12;48.25;100994.16;5077422;28;47399;-70
2023/09/09 04:12:28;;;;;;;;;17.33;16.67;;;;;26.85;48.06;100961.19;5076985;28;45351;-70
2023/09/09 04:14:53;;;;;;;;;13.67;13.67;;;;;27.02;48.34;100990.41;5077380;28;45334;-71
2023/09/09 04:17:18;;;;;;;;;16.67;15.00;;;;;26.80;47.98;100957.53;5077513;28;45437;-71
2023/09/09 04:19:44;;;;;;;;;18.33;16.00;;;;;27.03;48.21;101001.09;5076633;28;48325;-70
2023/09/09 04:22:09;;;;;;;;;13.67;13.67;;;;;26.95;48.31;100996.00;5076856;28;49980;-71
2023/09/09 04:24:34;;;;;;;;;13.00;12.00;;;;;26.98;48.54;100998.22;5077048;28;45438;-72
2023/09/09 04:26:59;;;;;;;;;18.00;16.67;;;;;27.00;48.82;101008.94;5077195;28;45450;-70
2023/09/09 04:29:25;;;;;;;;;16.33;13.33;;;;;26.96;48.58;101006.66;5075966;28;65353;-71
2023/09/09 04:31:50;;;;;;;;;16.33;16.33;;;;;26.56;49.02;100943.19;5077060;28;45471;-71
2023/09/09 04:34:16;;;;;;;;;14.00;13.33;;;;;26.87;48.68;101005.44;5076770;28;45361;-71
2023/09/09 04:36:42;;;;;;;;;16.00;16.00;;;;;26.87;49.27;101008.16;5077259;28;45409;-71
2023/09/09 04:39:07;;;;;;;;;15.33;14.00;;;;;26.77;49.55;101007.13;5076681;28;45769;-70
2023/09/09 04:41:32;;;;;;;;;13.00;13.00;;;;;26.52;49.10;100967.41;5058563;28;45607;-71
2023/09/09 04:43:58;;;;;;;;;16.67;16.33;;;;;26.53;49.44;100968.22;5076892;28;45497;-71
2023/09/09 04:46:23;;;;;;;;;11.33;11.33;;;;;26.81;49.53;101009.13;5076625;28;49600;-70
2023/09/09 04:48:53;;;;;;;;;14.00;14.00;;;;;26.68;49.61;100993.91;5076155;28;50901;-70
2023/09/09 04:51:18;;;;;;;;;17.00;17.00;;;;;26.63;49.63;100992.94;5076495;28;45512;-73
2023/09/09 04:53:43;;;;;;;;;13.33;12.33;;;;;26.46;49.87;100971.13;5076548;28;45380;-70
2023/09/09 04:56:09;;;;;;;;;16.00;16.00;;;;;26.71;49.89;101014.41;5077018;28;45458;-70
2023/09/09 04:58:34;;;;;;;;;17.33;14.00;;;;;26.66;49.82;101006.13;5076521;28;46472;-69
2023/09/09 05:01:00;;;;;;;;;15.33;15.33;;;;;26.63;50.15;101017.50;5076831;28;45272;-70
2023/09/09 05:03:25;;;;;;;;;17.33;16.00;;;;;26.52;50.03;100996.56;5076662;28;45426;-70
2023/09/09 05:05:50;;;;;;;;;15.67;13.33;;;;;26.64;50.09;101019.19;5076769;28;45485;-70
2023/09/09 05:08:16;;;;;;;;;18.33;16.00;;;;;26.64;50.19;101020.00;5058331;28;46603;-70
2023/09/09 05:10:41;;;;;;;;;14.00;14.00;;;;;26.60;50.11;101010.63;5076300;28;45484;-71
2023/09/09 05:13:06;;;;;;;;;14.00;13.67;;;;;26.35;50.11;100974.69;5058226;28;45285;-70
2023/09/09 05:15:33;;;;;;;;;15.33;15.00;;;;;26.58;50.62;101022.84;5076615;28;45478;-71
2023/09/09 05:17:58;;;;;;;;;14.00;13.00;;;;;26.45;50.53;100995.91;5076340;28;47111;-71
2023/09/09 05:20:23;;;;;;;;;19.67;16.00;;;;;26.54;50.61;101027.16;5076129;28;45182;-71
2023/09/09 05:22:49;;;;;;;;;19.67;16.33;;;;;26.34;50.67;101003.00;5076522;27;45458;-70
2023/09/09 05:25:15;;;;;;;;;19.33;16.67;;;;;26.43;50.98;101028.00;5076944;28;45198;-71
2023/09/09 05:27:40;;;;;;;;;12.33;12.33;;;;;26.44;50.73;101024.25;5079709;28;47454;-70
2023/09/09 05:30:06;;;;;;;;;18.00;15.00;;;;;26.33;50.90;101015.81;5079773;28;45428;-71
2023/09/09 05:32:31;;;;;;;;;15.67;13.67;;;;;26.33;50.51;101010.34;5079844;28;45224;-70
2023/09/09 05:34:57;;;;;;;;;17.33;16.67;;;;;26.44;50.91;101026.97;5079249;28;45389;-72
2023/09/09 05:37:26;;;;;;;;;15.67;13.67;;;;;26.47;51.01;101029.19;5044547;28;47457;-70
2023/09/09 05:39:51;;;;;;;;;12.33;11.33;;;;;26.38;50.41;101004.19;5079790;28;45348;-70
2023/09/09 05:42:17;;;;;;;;;12.00;12.00;;;;;26.43;50.15;101022.56;5079944;28;45478;-72
2023/09/09 05:44:42;;;;;;;;;13.00;12.67;;;;;26.14;49.79;100978.06;5079904;28;45526;-70
2023/09/09 05:47:08;;;;;;;;;14.33;9.33;;;;;26.43;49.63;101028.00;5079462;28;46362;-73
2023/09/09 05:49:33;;;;;;;;;14.33;14.33;;;;;26.17;50.39;100996.66;5079491;28;45163;-71
2023/09/09 05:51:59;;;;;;;;;18.00;17.00;;;;;26.09;50.23;100989.69;5083111;27;45325;-72
2023/09/09 05:54:24;;;;;;;;;14.00;14.00;;;;;26.37;50.58;101040.72;5091561;27;45454;-70
2023/09/09 05:56:49;;;;;;;;;15.67;15.67;;;;;26.31;50.58;101044.38;5080550;27;66486;-71
2023/09/09 05:59:15;;;;;;;;;15.33;15.33;;;;;26.28;50.55;101042.13;5098418;27;45343;-69
2023/09/09 06:01:40;;;;;;;;;13.67;12.00;;;;;26.25;51.10;101039.91;5099857;27;45161;-70
2023/09/09 06:04:05;;;;;;;;;15.00;14.00;;;;;26.28;50.43;101037.50;5099654;27;45147;-70
2023/09/09 06:06:31;;;;;;;;;15.33;13.33;;;;;26.25;50.90;101026.28;5099543;27;52651;-69
2023/09/09 06:08:57;;;;;;;;;13.67;13.67;;;;;26.43;50.77;101047.94;5099507;27;45249;-70
2023/09/09 06:11:23;;;;;;;;;16.00;16.00;;;;;26.44;50.53;101044.16;5086510;27;45324;-71
2023/09/09 06:13:48;;;;;;;;;19.00;18.33;;;;;26.38;50.71;101035.00;5095795;27;45363;-69
2023/09/09 06:16:13;;;;;;;;;20.67;19.00;;;;;26.50;50.78;101045.91;5099177;27;45399;-72
2023/09/09 06:18:39;;;;;;;;;24.00;20.67;;;;;26.49;50.35;101046.16;5098534;27;65825;-72
2023/09/09 06:21:04;;;;;;;;;21.33;18.33;;;;;26.54;50.73;101044.34;5099075;27;45417;-71
2023/09/09 06:23:29;;;;;;;;;18.00;18.00;;;;;26.59;50.28;101055.34;5109806;27;45347;-70
2023/09/09 06:25:55;;;;;;;;;12.33;11.00;;;;;26.27;50.48;100986.81;5119647;27;45863;-71
2023/09/09 06:28:20;;;;;;;;;20.33;16.00;;;;;26.82;50.24;101054.41;5118022;27;53654;-71
2023/09/09 06:30:46;;;;;;;;;16.67;16.67;;;;;26.87;49.61;101016.34;5112448;27;45518;-71
2023/09/09 06:33:11;;;;;;;;;21.00;15.67;;;;;27.46;49.12;101060.53;5089710;27;45500;-73
2023/09/09 06:35:37;;;;;;;;;16.00;16.00;;;;;27.82;48.03;101058.34;5099619;27;45459;-72
2023/09/09 06:38:02;;;;;;;;;22.00;19.33;;;;;28.19;47.93;101056.72;5110302;27;45770;-71
2023/09/09 06:40:28;;;;;;;;;19.67;19.00;;;;;28.53;46.64;101058.53;5099252;27;45299;-70
2023/09/09 06:42:54;;;;;;;;;16.00;16.00;;;;;28.73;45.64;101053.28;5104984;27;45579;-71
2023/09/09 06:45:19;;;;;;;;;14.00;13.67;;;;;29.06;44.77;101055.03;5099017;27;46930;-70
2023/09/09 06:47:45;;;;;;;;;15.33;14.33;;;;;29.36;44.11;101054.47;5098967;27;45245;-71
2023/09/09 06:50:11;;;;;;;;;11.67;11.67;;;;;29.39;43.88;101018.34;5119200;27;45526;-71
2023/09/09 06:52:38;;;;;;;;;15.33;15.33;;;;;29.80;42.93;101052.38;5107424;27;45444;-71
2023/09/09 06:55:07;;;;;;;;;12.67;12.67;;;;;29.95;42.39;101049.72;5105889;27;45994;-71
2023/09/09 06:57:33;;;;;;;;;15.00;14.00;;;;;29.92;42.07;101022.03;5119063;27;45280;-70
2023/09/09 06:59:58;;;;;;;;;14.00;12.00;;;;;30.30;41.40;101056.53;5083737;27;45589;-70
2023/09/09 07:02:23;;;;;;;;;13.33;11.00;;;;;30.49;41.21;101054.97;5103867;27;45487;-73
2023/09/09 07:04:49;;;;;;;;;16.67;15.67;;;;;30.66;40.76;101062.19;5098338;27;45700;-69
2023/09/09 07:07:14;;;;;;;;;14.67;12.33;;;;;30.84;40.55;101059.78;5097663;27;45417;-78
2023/09/09 07:09:39;;;;;;;;;13.00;12.00;;;;;31.13;39.81;101071.06;5119103;27;45224;-72
2023/09/09 07:12:05;;;;;;;;;15.33;12.33;;;;;31.25;39.25;101039.81;5094907;27;45317;-70
2023/09/09 07:14:30;;;;;;;;;16.67;13.00;;;;;31.52;39.34;101048.56;5110206;27;46703;-71
2023/09/09 07:16:56;;;;;;;;;16.33;15.00;;;;;31.81;38.58;101057.06;5118873;27;45286;-72
2023/09/09 07:19:21;;;;;;;;;11.00;10.33;;;;;31.43;38.09;100963.09;5080690;27;45352;-72
2023/09/09 07:21:46;;;;;;;;;16.00;13.00;;;;;32.28;37.66;101059.47;5102749;27;45401;-72
2023/09/09 07:24:12;;;;;;;;;15.33;13.67;;;;;32.46;37.32;101060.78;5116204;27;62050;-71
2023/09/09 07:26:37;;;;;;;;;13.67;13.00;;;;;32.38;37.24;101023.63;5094872;27;45470;-73
2023/09/09 07:29:03;;;;;;;;;12.00;10.67;;;;;32.75;36.67;101044.34;5096680;27;45322;-71
2023/09/09 07:31:29;;;;;;;;;16.67;12.67;;;;;32.97;35.75;101058.56;5099551;27;45394;-71
2023/09/09 07:33:55;;;;;;;;;15.67;12.00;;;;;33.12;35.82;101056.81;5116839;27;45996;-71
2023/09/09 07:36:20;;;;;;;;;13.67;10.00;;;;;33.28;35.93;101055.59;5090571;27;46878;-72
2023/09/09 07:38:45;;;;;;;;;12.33;11.00;;;;;33.03;34.96;100971.19;5111453;27;45501;-72
2023/09/09 07:41:11;;;;;;;;;11.33;10.33;;;;;33.89;34.35;101052.31;5084715;27;57042;-71
2023/09/09 07:43:36;;;;;;;;;13.67;10.00;;;;;34.34;34.26;101050.13;5102846;27;45603;-71
2023/09/09 07:46:01;;;;;;;;;12.00;10.33;;;;;34.80;33.20;101060.56;5097550;27;45449;-71
2023/09/09 07:48:27;;;;;;;;;11.67;10.00;;;;;35.12;32.29;101068.97;5104249;27;45245;-70
2023/09/09 07:50:55;;;;;;;;;12.33;9.67;;;;;35.33;31.91;101061.97;5118145;27;45390;-72
2023/09/09 07:53:21;;;;;;;;;11.00;8.67;;;;;35.58;31.46;101057.16;5111305;27;46398;-71
2023/09/09 07:55:51;;;;;;;;;14.00;12.33;;;;;35.90;30.84;101070.97;5104882;27;45548;-71
2023/09/09 07:58:17;;;;;;;;;10.67;9.33;;;;;36.02;30.36;101075.19;5107825;27;45264;-72
2023/09/09 08:00:46;;;;;;;;;11.33;10.67;;;;;36.10;30.18;101024.66;5098273;27;45689;-72
2023/09/09 08:03:13;;;;;;;;;12.33;11.00;;;;;36.35;29.64;101060.13;5117642;27;45847;-70
2023/09/09 08:05:39;;;;;;;;;13.00;12.00;;;;;36.20;30.04;101055.69;5117719;27;45257;-71
2023/09/09 08:08:06;;;;;;;;;11.00;10.00;;;;;36.04;30.10;101070.97;5117686;27;45493;-72
2023/09/09 08:10:32;;;;;;;;;10.67;10.33;;;;;36.10;30.15;101069.75;5112975;27;45608;-76
2023/09/09 08:12:58;;;;;;;;;11.67;11.67;;;;;36.15;30.09;101066.88;5112730;27;47650;-75
2023/09/09 08:15:23;;;;;;;;;11.67;11.00;;;;;36.29;29.76;101074.38;5105365;27;45180;-70
2023/09/09 08:17:48;;;;;;;;;10.67;10.67;;;;;36.55;29.57;101065.22;5118057;27;45299;-70
2023/09/09 08:20:14;;;;;;;;;11.00;9.67;;;;;36.96;29.54;101066.28;5115150;27;45399;-72
2023/09/09 08:22:39;;;;;;;;;17.33;14.00;;;;;37.27;28.52;101058.91;5107717;27;46325;-74
2023/09/09 08:25:05;;;;;;;;;10.67;8.33;;;;;37.58;27.34;101050.59;5077114;27;45530;-70
2023/09/09 08:27:30;;;;;;;;;13.33;11.00;;;;;37.73;27.59;101060.50;5087782;27;45402;-72
2023/09/09 08:29:57;;;;;;;;;12.33;12.33;;;;;37.69;27.42;101076.13;5079009;27;45552;-71
2023/09/09 08:32:22;;;;;;;;;12.67;12.00;;;;;37.35;27.94;101071.19;5096905;27;45957;-72
2023/09/09 08:34:51;;;;;;;;;12.67;11.00;;;;;36.98;28.44;101067.59;5096834;27;45404;-72
2023/09/09 08:37:16;;;;;;;;;15.67;12.00;;;;;36.85;28.64;101074.84;5097265;27;45401;-71
2023/09/09 08:39:41;;;;;;;;;14.67;12.67;;;;;36.79;28.49;101072.50;5097167;27;45315;-71
2023/09/09 08:42:13;;;;;;;;;12.67;10.33;;;;;36.62;28.37;101070.34;5097057;27;46306;-71
2023/09/09 08:44:50;;;;;;;;;13.00;12.33;;;;;36.26;28.95;101067.50;5078719;27;45980;-71
2023/09/09 08:47:18;;;;;;;;;10.00;10.00;;;;;36.12;29.61;101077.75;5096313;27;45515;-71
2023/09/09 08:49:47;;;;;;;;;13.00;12.00;;;;;35.95;29.09;101029.38;5096918;27;45259;-71
2023/09/09 08:52:21;;;;;;;;;10.00;10.00;;;;;36.38;28.87;101067.00;5096883;27;45735;-72
2023/09/09 08:54:47;;;;;;;;;11.00;9.67;;;;;36.35;29.07;101043.53;5078536;27;45249;-71
2023/09/09 08:57:13;;;;;;;;;11.00;11.00;;;;;36.55;28.74;101067.19;5097018;27;45304;-71
2023/09/09 08:59:40;;;;;;;;;10.67;9.67;;;;;36.45;28.34;101054.41;5078690;27;45603;-72
2023/09/09 09:02:09;;;;;;;;;12.00;10.33;;;;;36.65;27.91;101069.75;5099627;27;46422;-71
2023/09/09 09:04:35;;;;;;;;;11.00;11.00;;;;;36.80;28.50;101072.19;5100242;27;45241;-72
2023/09/09 09:07:02;;;;;;;;;12.33;12.00;;;;;36.87;27.55;101060.69;5100492;27;45358;-71
2023/09/09 09:09:29;;;;;;;;;10.00;9.33;;;;;36.90;27.48;101056.47;5100511;27;45216;-73
2023/09/09 09:11:58;;;;;;;;;12.33;12.00;;;;;37.07;27.63;101045.53;5081317;27;48196;-72
2023/09/09 09:14:23;;;;;;;;;8.33;8.33;;;;;37.29;27.12;101073.28;5081907;27;45534;-72
2023/09/09 09:16:50;;;;;;;;;10.33;9.33;;;;;37.23;27.17;101026.53;5100385;27;45353;-73
2023/09/09 09:19:25;;;;;;;;;12.00;11.00;;;;;37.69;27.15;101054.75;5100289;27;45325;-72
2023/09/09 09:21:51;;;;;;;;;12.67;10.33;;;;;38.16;26.39;101055.13;5099960;27;46617;-72
2023/09/09 09:24:39;;;;;;;;;10.00;10.00;;;;;38.50;24.96;101007.19;5095221;27;45422;-71
2023/09/09 09:27:11;;;;;;;;;10.33;9.33;;;;;38.92;25.16;101018.66;5100189;27;45440;-72
2023/09/09 09:29:39;;;;;;;;;12.00;11.00;;;;;39.49;25.16;101033.16;5100308;27;45478;-71
2023/09/09 09:32:05;;;;;;;;;10.00;10.00;;;;;39.90;23.68;101067.91;5099692;27;46717;-72
2023/09/09 09:34:34;;;;;;;;;12.00;11.33;;;;;39.61;24.45;101051.16;5099772;27;45451;-72
2023/09/09 09:37:18;;;;;;;;;13.67;12.67;;;;;39.35;25.49;101063.13;5099718;27;45420;-72
2023/09/09 09:39:44;;;;;;;;;14.00;10.00;;;;;38.75;25.48;101052.03;5098867;27;45420;-73
2023/09/09 09:42:11;;;;;;;;;10.67;9.00;;;;;38.15;26.56;101044.34;5083232;27;46698;-71
2023/09/09 09:44:37;;;;;;;;;13.00;13.00;;;;;37.88;27.27;101068.44;5099726;27;45228;-72
2023/09/09 09:47:08;;;;;;;;;12.33;10.67;;;;;37.66;26.96;101072.03;5099750;27;45291;-72
2023/09/09 09:49:36;;;;;;;;;12.33;10.00;;;;;37.33;27.33;101073.47;5099682;27;45494;-72
2023/09/09 09:52:02;;;;;;;;;12.33;12.33;;;;;37.08;27.09;101066.56;5099387;27;46545;-71
2023/09/09 09:54:29;;;;;;;;;13.67;11.33;;;;;36.71;28.17;101040.78;5099096;27;45358;-73
2023/09/09 09:56:59;;;;;;;;;13.67;11.33;;;;;36.56;28.54;101066.06;5099523;27;45534;-71
2023/09/09 09:59:28;;;;;;;;;11.67;11.67;;;;;36.08;29.11;101046.28;5099687;27;45524;-71
2023/09/09 10:01:55;;;;;;;;;12.00;10.33;;;;;35.47;28.64;101012.28;5099449;27;47022;-72
2023/09/09 10:04:22;;;;;;;;;9.00;9.00;;;;;35.52;29.65;101069.44;5096656;27;45476;-72
2023/09/09 10:06:52;;;;;;;;;14.00;14.00;;;;;35.26;29.90;101067.09;5079512;27;45514;-73
2023/09/09 10:09:55;;;;;;;;;15.00;14.33;;;;;35.00;30.93;101065.81;5077544;28;45625;-72
2023/09/09 10:12:36;;;;;;;;;18.00;15.33;;;;;34.75;30.79;101059.53;5087011;27;47595;-72
2023/09/09 10:15:04;;;;;;;;;14.67;12.33;;;;;34.65;31.19;101056.94;5098918;27;45329;-71
2023/09/09 10:17:31;;;;;;;;;11.00;10.33;;;;;34.65;29.58;101062.44;5092804;27;45398;-72
2023/09/09 10:19:58;;;;;;;;;11.33;11.33;;;;;34.47;30.62;101054.97;5098875;27;45292;-71
2023/09/09 10:22:25;;;;;;;;;14.00;13.33;;;;;34.37;29.96;101060.59;5099565;27;45601;-73
2023/09/09 10:24:52;;;;;;;;;15.00;15.00;;;;;34.20;30.63;101050.00;5110794;27;45611;-72
2023/09/09 10:27:19;;;;;;;;;13.00;11.67;;;;;33.96;30.94;101027.13;5080363;27;45617;-72
2023/09/09 10:29:45;;;;;;;;;10.33;10.33;;;;;33.86;30.65;101009.59;5099697;27;45339;-71
2023/09/09 10:32:12;;;;;;;;;13.00;12.33;;;;;34.00;31.36;101040.03;5099236;27;45772;-73
2023/09/09 10:34:39;;;;;;;;;13.33;12.00;;;;;33.75;30.79;101021.00;5118715;27;45308;-71
2023/09/09 10:37:07;;;;;;;;;10.33;10.33;;;;;33.91;31.97;101052.84;5119534;27;45345;-71
2023/09/09 10:39:33;;;;;;;;;13.33;12.00;;;;;33.38;31.55;100983.84;5119378;27;45486;-72
2023/09/09 10:41:59;;;;;;;;;15.00;14.33;;;;;33.70;32.00;101045.88;5119088;27;45569;-71
2023/09/09 10:44:25;;;;;;;;;18.33;15.67;;;;;33.73;32.01;101045.28;5119365;27;45260;-72
2023/09/09 10:46:57;;;;;;;;;17.33;17.33;;;;;33.46;32.01;101021.84;5119373;27;45670;-71
2023/09/09 10:49:27;;;;;;;;;16.33;16.33;;;;;33.52;32.04;101039.97;5109361;27;45537;-71
2023/09/09 10:51:52;;;;;;;;;12.00;12.00;;;;;33.51;31.86;101046.59;5098241;27;45317;-72
2023/09/09 10:54:21;;;;;;;;;13.67;13.00;;;;;33.48;31.30;101049.94;5098054;27;45461;-71
2023/09/09 10:56:52;;;;;;;;;14.33;13.67;;;;;33.37;31.74;101037.34;5083508;27;45329;-70
2023/09/09 10:59:21;;;;;;;;;11.33;11.33;;;;;33.29;32.11;101026.91;5098664;27;45468;-69
2023/09/09 11:01:48;;;;;;;;;14.00;13.67;;;;;33.34;32.27;101037.94;5097148;27;46541;-71
2023/09/09 11:04:23;;;;;;;;;12.33;12.33;;;;;33.32;31.86;101040.16;5104300;27;45405;-72
2023/09/09 11:07:04;;;;;;;;;17.67;15.67;;;;;33.22;32.33;101024.47;5088873;27;45452;-71